createdAt,value
2018-09-01T00:00:33.934Z,6.50
2018-09-01T00:03:02.909Z,8.20
2018-09-01T00:05:31.916Z,6.73
2018-09-01T00:08:00.908Z,5.93
2018-09-01T00:10:29.924Z,6.40
2018-09-01T00:12:58.980Z,7.27
2018-09-01T00:15:28.009Z,7.70
2018-09-01T00:17:57.263Z,6.67
2018-09-01T00:20:26.221Z,6.90
2018-09-01T00:22:55.206Z,8.07
2018-09-01T00:25:24.230Z,6.57
2018-09-01T00:27:53.225Z,11.33
2018-09-01T00:30:22.259Z,9.13
2018-09-01T00:32:51.268Z,8.13
2018-09-01T00:35:20.259Z,6.60
2018-09-01T00:37:54.407Z,7.50
2018-09-01T00:40:26.573Z,5.93
2018-09-01T00:42:57.303Z,6.63
2018-09-01T00:45:26.659Z,7.70
2018-09-01T00:47:55.744Z,6.67
2018-09-01T00:50:25.187Z,8.47
2018-09-01T00:52:54.188Z,4.77
2018-09-01T00:55:28.725Z,4.97
2018-09-01T00:57:58.039Z,5.83
2018-09-01T01:00:26.981Z,5.53
2018-09-01T01:02:55.960Z,4.67
2018-09-01T01:05:24.983Z,4.93
2018-09-01T01:07:53.961Z,7.20
2018-09-01T01:10:22.973Z,9.37
2018-09-01T01:12:51.983Z,8.13
2018-09-01T01:15:20.980Z,7.57
2018-09-01T01:17:50.144Z,6.23
2018-09-01T01:20:19.200Z,5.87
2018-09-01T01:22:48.144Z,4.80
2018-09-01T01:25:17.188Z,6.47
2018-09-01T01:27:46.525Z,6.37
2018-09-01T01:30:15.478Z,6.77
2018-09-01T01:32:44.542Z,7.57
2018-09-01T01:35:13.584Z,7.83
2018-09-01T01:37:42.657Z,7.73
2018-09-01T01:40:11.652Z,6.30
2018-09-01T01:42:40.892Z,5.80
2018-09-01T01:45:10.039Z,6.90
2018-09-01T01:47:40.708Z,9.20
2018-09-01T01:50:10.948Z,5.83
2018-09-01T01:52:39.955Z,6.83
2018-09-01T01:55:08.948Z,5.07
2018-09-01T01:57:43.248Z,5.70
2018-09-01T02:00:12.220Z,5.10
2018-09-01T02:02:41.187Z,6.67
2018-09-01T02:05:14.460Z,6.03
2018-09-01T02:07:43.458Z,6.40
2018-09-01T02:10:12.748Z,6.03
2018-09-01T02:12:41.751Z,6.90
2018-09-01T02:15:10.761Z,7.07
2018-09-01T02:17:39.721Z,4.90
2018-09-01T02:20:08.706Z,8.57
2018-09-01T02:22:37.703Z,5.47
2018-09-01T02:25:06.717Z,7.03
2018-09-01T02:27:35.792Z,6.13
2018-09-01T02:30:05.071Z,5.87
2018-09-01T02:32:34.035Z,5.77
2018-09-01T02:35:03.017Z,5.47
2018-09-01T02:37:32.032Z,6.13
2018-09-01T02:40:00.996Z,9.43
2018-09-01T02:42:30.328Z,6.00
2018-09-01T02:44:59.316Z,6.73
2018-09-01T02:47:28.327Z,6.10
2018-09-01T02:49:57.343Z,6.10
2018-09-01T02:52:26.320Z,5.00
2018-09-01T02:54:55.289Z,7.80
2018-09-01T02:57:24.280Z,9.07
2018-09-01T02:59:53.286Z,7.20
2018-09-01T03:02:27.727Z,8.67
2018-09-01T03:04:56.832Z,6.30
2018-09-01T03:07:26.224Z,5.57
2018-09-01T03:09:55.252Z,5.90
2018-09-01T03:12:24.234Z,5.27
2018-09-01T03:14:53.296Z,9.10
2018-09-01T03:17:22.251Z,8.07
2018-09-01T03:19:51.305Z,5.13
2018-09-01T03:22:20.280Z,6.83
2018-09-01T03:24:49.304Z,8.27
2018-09-01T03:27:18.404Z,10.97
2018-09-01T03:29:47.380Z,10.67
2018-09-01T03:32:16.342Z,7.83
2018-09-01T03:34:45.364Z,6.37
2018-09-01T03:37:14.691Z,5.27
2018-09-01T03:39:43.680Z,5.90
2018-09-01T03:42:12.720Z,9.30
2018-09-01T03:44:41.760Z,8.23
2018-09-01T03:47:11.064Z,6.93
2018-09-01T03:49:40.093Z,6.07
2018-09-01T03:52:09.056Z,7.27
2018-09-01T03:54:38.040Z,6.10
2018-09-01T03:57:07.024Z,7.10
2018-09-01T03:59:36.033Z,8.90
2018-09-01T04:02:05.315Z,9.10
2018-09-01T04:04:34.279Z,6.50
2018-09-01T04:07:03.264Z,8.57
2018-09-01T04:09:32.249Z,6.23
2018-09-01T04:12:01.506Z,9.27
2018-09-01T04:14:30.507Z,6.47
2018-09-01T04:16:59.558Z,7.73
2018-09-01T04:19:28.570Z,6.37
2018-09-01T04:21:57.584Z,8.63
2018-09-01T04:24:26.574Z,6.50
2018-09-01T04:26:55.559Z,5.33
2018-09-01T04:29:24.578Z,6.23
2018-09-01T04:31:53.631Z,6.63
2018-09-01T04:34:22.636Z,7.83
2018-09-01T04:36:51.657Z,8.33
2018-09-01T04:39:20.655Z,8.47
2018-09-01T04:41:49.622Z,7.20
2018-09-01T04:44:18.605Z,5.73
2018-09-01T04:46:47.649Z,5.03
2018-09-01T04:49:16.664Z,7.87
2018-09-01T04:51:45.636Z,9.10
2018-09-01T04:54:14.695Z,9.77
2018-09-01T04:56:43.696Z,6.27
2018-09-01T04:59:12.712Z,6.27
2018-09-01T05:01:41.883Z,9.00
2018-09-01T05:04:10.891Z,6.27
2018-09-01T05:06:39.892Z,7.67
2018-09-01T05:09:08.923Z,6.50
2018-09-01T05:11:37.939Z,6.90
2018-09-01T05:14:06.904Z,6.53
2018-09-01T05:16:35.963Z,8.23
2018-09-01T05:19:04.983Z,6.50
2018-09-01T05:21:33.998Z,8.57
2018-09-01T05:24:03.001Z,10.33
2018-09-01T05:26:31.988Z,8.47
2018-09-01T05:29:01.050Z,6.67
2018-09-01T05:31:30.101Z,5.80
2018-09-01T05:33:59.136Z,7.30
2018-09-01T05:36:28.170Z,7.83
2018-09-01T05:38:57.136Z,7.93
2018-09-01T05:41:26.088Z,8.30
2018-09-01T05:43:55.398Z,8.10
2018-09-01T05:46:24.382Z,8.13
2018-09-01T05:48:53.355Z,9.60
2018-09-01T05:51:22.385Z,9.80
2018-09-01T05:53:51.365Z,11.13
2018-09-01T05:56:20.437Z,7.57
2018-09-01T05:58:49.388Z,9.93
2018-09-01T06:01:18.664Z,9.27
2018-09-01T06:03:47.703Z,7.83
2018-09-01T06:06:16.741Z,5.73
2018-09-01T06:08:45.784Z,8.17
2018-09-01T06:11:14.881Z,7.90
2018-09-01T06:13:44.153Z,8.30
2018-09-01T06:16:13.135Z,7.97
2018-09-01T06:18:42.138Z,10.90
2018-09-01T06:21:11.157Z,7.10
2018-09-01T06:23:40.152Z,9.73
2018-09-01T06:28:52.102Z,13.73
2018-09-01T06:31:21.721Z,10.27
2018-09-01T06:33:51.049Z,7.83
2018-09-01T06:36:20.172Z,10.17
2018-09-01T06:38:49.211Z,7.57
2018-09-01T06:41:18.268Z,8.70
2018-09-01T06:43:47.239Z,10.80
2018-09-01T06:46:16.624Z,9.83
2018-09-01T06:48:45.650Z,7.90
2018-09-01T06:51:14.703Z,7.77
2018-09-01T06:53:43.744Z,8.93
2018-09-01T06:56:12.874Z,13.73
2018-09-01T06:58:41.878Z,10.17
2018-09-01T07:01:11.393Z,8.63
2018-09-01T07:03:41.258Z,8.70
2018-09-01T07:06:10.282Z,11.33
2018-09-01T07:08:39.459Z,11.23
2018-09-01T07:11:08.719Z,12.90
2018-09-01T07:13:37.757Z,11.73
2018-09-01T07:16:06.777Z,11.80
2018-09-01T07:18:35.793Z,13.33
2018-09-01T07:21:04.856Z,9.20
2018-09-01T07:23:33.835Z,5.57
2018-09-01T07:26:02.877Z,9.53
2018-09-01T07:28:31.913Z,9.93
2018-09-01T07:31:01.356Z,9.53
2018-09-01T07:33:29.960Z,7.28
2018-09-01T07:35:58.932Z,8.70
2018-09-01T07:38:27.920Z,6.22
2018-09-01T07:40:56.928Z,9.20
2018-09-01T07:43:25.900Z,7.33
2018-09-01T07:45:54.915Z,6.37
2018-09-01T07:48:23.929Z,6.58
2018-09-01T07:50:53.351Z,7.92
2018-09-01T07:53:22.434Z,7.97
2018-09-01T07:55:51.416Z,7.30
2018-09-01T07:58:20.579Z,7.92
2018-09-01T08:00:49.632Z,10.30
2018-09-01T08:03:18.622Z,7.95
2018-09-01T08:05:47.685Z,5.20
2018-09-01T08:08:16.657Z,9.43
2018-09-01T08:10:45.684Z,9.45
2018-09-01T08:13:15.043Z,7.58
2018-09-01T08:15:44.154Z,8.98
2018-09-01T08:18:13.365Z,7.65
2018-09-01T08:20:42.884Z,11.90
2018-09-01T08:23:11.942Z,7.53
2018-09-01T08:25:41.048Z,8.00
2018-09-01T08:28:10.084Z,8.10
2018-09-01T08:30:39.140Z,10.43
2018-09-01T08:33:08.161Z,7.67
2018-09-01T08:35:37.177Z,8.05
2018-09-01T08:38:06.203Z,11.65
2018-09-01T08:40:35.197Z,6.55
2018-09-01T08:43:04.311Z,10.23
2018-09-01T08:45:33.358Z,7.03
2018-09-01T08:48:02.348Z,7.37
2018-09-01T08:50:31.364Z,9.40
2018-09-01T08:53:00.476Z,7.87
2018-09-01T08:55:29.488Z,6.75
2018-09-01T08:57:58.515Z,5.78
2018-09-01T09:00:27.529Z,7.45
2018-09-01T09:02:56.535Z,9.85
2018-09-01T09:05:25.595Z,11.12
2018-09-01T09:07:54.528Z,9.73
2018-09-01T09:10:23.589Z,13.62
2018-09-01T09:12:52.568Z,8.33
2018-09-01T09:15:21.652Z,6.42
2018-09-01T09:17:50.675Z,8.00
2018-09-01T09:20:19.631Z,6.47
2018-09-01T09:22:48.664Z,7.25
2018-09-01T09:25:17.641Z,8.58
2018-09-01T09:27:46.779Z,12.88
2018-09-01T09:30:15.751Z,7.90
2018-09-01T09:32:44.753Z,5.58
2018-09-01T09:35:13.912Z,7.33
2018-09-01T09:37:42.961Z,5.15
2018-09-01T09:40:11.963Z,6.85
2018-09-01T09:42:40.989Z,7.17
2018-09-01T09:45:10.064Z,4.08
2018-09-01T09:47:39.099Z,4.20
2018-09-01T09:50:08.114Z,4.20
2018-09-01T09:52:37.110Z,4.45
2018-09-01T09:55:06.148Z,7.67
2018-09-01T09:57:35.195Z,6.40
2018-09-01T10:00:04.690Z,4.20
2018-09-01T10:02:33.668Z,3.58
2018-09-01T10:05:02.849Z,3.27
2018-09-01T10:07:31.835Z,2.60
2018-09-01T10:10:00.854Z,2.47
2018-09-01T10:12:29.881Z,3.08
2018-09-01T10:14:58.857Z,1.55
2018-09-01T10:17:27.875Z,3.30
2018-09-01T10:19:56.885Z,2.52
2018-09-01T10:22:25.869Z,2.83
2018-09-01T10:24:55.058Z,2.27
2018-09-01T10:27:24.037Z,4.22
2018-09-01T10:29:53.029Z,3.45
2018-09-01T10:32:22.029Z,2.55
2018-09-01T10:34:51.092Z,2.15
2018-09-01T10:37:20.016Z,3.17
2018-09-01T10:39:49.044Z,2.98
2018-09-01T10:42:18.028Z,2.70
2018-09-01T10:44:47.041Z,5.15
2018-09-01T10:47:16.029Z,4.40
2018-09-01T10:49:45.061Z,4.35
2018-09-01T10:52:14.284Z,4.80
2018-09-01T10:54:43.346Z,2.10
2018-09-01T10:57:12.406Z,5.35
2018-09-01T10:59:41.524Z,2.67
2018-09-01T11:02:10.480Z,4.40
2018-09-01T11:04:39.456Z,5.62
2018-09-01T11:07:08.480Z,3.20
2018-09-01T11:09:44.343Z,3.77
2018-09-01T11:12:13.655Z,5.60
2018-09-01T11:14:42.664Z,5.37
2018-09-01T11:17:11.904Z,5.42
2018-09-01T11:19:40.918Z,3.45
2018-09-01T11:22:09.997Z,3.00
2018-09-01T11:24:39.001Z,3.83
2018-09-01T11:27:08.031Z,4.15
2018-09-01T11:29:37.036Z,2.87
2018-09-01T11:32:06.260Z,4.95
2018-09-01T11:34:35.315Z,3.77
2018-09-01T11:37:04.303Z,2.37
2018-09-01T11:39:33.333Z,4.42
2018-09-01T11:42:02.347Z,2.70
2018-09-01T11:44:31.354Z,3.77
2018-09-01T11:47:00.369Z,2.75
2018-09-01T11:49:29.366Z,4.60
2018-09-01T11:51:58.386Z,1.95
2018-09-01T11:54:27.361Z,3.00
2018-09-01T11:56:56.783Z,3.22
2018-09-01T11:59:25.807Z,2.35
2018-09-01T12:01:54.787Z,4.33
2018-09-01T12:04:24.240Z,4.53
2018-09-01T12:06:53.252Z,3.12
2018-09-01T12:09:22.253Z,1.60
2018-09-01T12:11:51.568Z,3.07
2018-09-01T12:14:20.493Z,3.33
2018-09-01T12:16:49.447Z,2.02
2018-09-01T12:19:18.865Z,2.30
2018-09-01T12:21:48.064Z,3.27
2018-09-01T12:24:17.056Z,2.20
2018-09-01T12:26:46.306Z,2.33
2018-09-01T12:29:15.380Z,2.40
2018-09-01T12:31:44.368Z,2.77
2018-09-01T12:34:13.425Z,3.50
2018-09-01T12:36:42.436Z,1.98
2018-09-01T12:39:11.524Z,2.70
2018-09-01T12:41:40.526Z,1.67
2018-09-01T12:44:09.544Z,2.47
2018-09-01T12:46:38.863Z,4.95
2018-09-01T12:49:07.854Z,3.23
2018-09-01T12:51:36.812Z,2.47
2018-09-01T12:54:05.853Z,1.67
2018-09-01T12:56:34.872Z,4.08
2018-09-01T12:59:04.346Z,2.33
2018-09-01T13:01:33.527Z,1.65
2018-09-01T13:04:02.571Z,2.35
2018-09-01T13:06:31.611Z,2.83
2018-09-01T13:09:00.633Z,2.77
2018-09-01T13:11:29.641Z,2.72
2018-09-01T13:13:58.691Z,2.20
2018-09-01T13:16:27.640Z,1.52
2018-09-01T13:18:56.666Z,1.57
2018-09-01T13:21:25.644Z,2.30
2018-09-01T13:23:54.743Z,4.85
2018-09-01T13:26:23.795Z,3.30
2018-09-01T13:28:52.777Z,2.83
2018-09-01T13:31:21.859Z,2.37
2018-09-01T13:33:50.852Z,2.63
2018-09-01T13:36:20.105Z,3.73
2018-09-01T13:38:49.103Z,2.87
2018-09-01T13:41:18.099Z,5.27
2018-09-01T13:43:47.119Z,4.23
2018-09-01T13:46:16.439Z,3.00
2018-09-01T13:48:45.536Z,3.47
2018-09-01T13:51:14.544Z,1.65
2018-09-01T13:53:43.591Z,3.40
2018-09-01T13:56:12.607Z,3.80
2018-09-01T13:58:41.644Z,3.33
2018-09-01T14:01:11.113Z,2.10
2018-09-01T14:03:40.084Z,3.77
2018-09-01T14:06:09.064Z,3.53
2018-09-01T14:08:38.063Z,3.20
2018-09-01T14:11:07.165Z,3.53
2018-09-01T14:13:36.174Z,2.27
2018-09-01T14:16:05.174Z,5.13
2018-09-01T14:18:34.228Z,3.60
2018-09-01T14:21:03.237Z,7.70
2018-09-01T14:23:32.203Z,2.90
2018-09-01T14:26:01.282Z,2.33
2018-09-01T14:28:30.329Z,2.10
2018-09-01T14:30:59.316Z,3.20
2018-09-01T14:33:28.402Z,2.40
2018-09-01T14:35:57.407Z,2.20
2018-09-01T14:38:26.445Z,7.03
2018-09-01T14:40:55.531Z,6.37
2018-09-01T14:43:24.535Z,3.40
2018-09-01T14:45:53.489Z,2.43
2018-09-01T14:48:22.571Z,4.13
2018-09-01T14:50:51.494Z,4.17
2018-09-01T14:53:20.568Z,5.60
2018-09-01T14:55:49.852Z,3.33
2018-09-01T14:58:18.836Z,3.40
2018-09-01T15:00:47.837Z,2.37
2018-09-01T15:03:16.863Z,4.30
2018-09-01T15:05:45.852Z,3.70
2018-09-01T15:08:14.917Z,5.37
2018-09-01T15:10:44.017Z,3.33
2018-09-01T15:13:13.022Z,1.93
2018-09-01T15:15:42.360Z,3.10
2018-09-01T15:18:11.399Z,4.57
2018-09-01T15:20:55.796Z,3.33
2018-09-01T15:23:25.122Z,3.63
2018-09-01T15:25:54.234Z,3.10
2018-09-01T15:28:23.315Z,2.47
2018-09-01T15:30:52.332Z,4.37
2018-09-01T15:33:21.316Z,3.83
2018-09-01T15:35:50.655Z,3.17
2018-09-01T15:38:19.651Z,4.13
2018-09-01T15:40:48.736Z,5.70
2018-09-01T15:43:17.775Z,4.00
2018-09-01T15:45:46.751Z,4.63
2018-09-01T15:48:15.820Z,6.23
2018-09-01T15:50:44.847Z,4.73
2018-09-01T15:53:14.212Z,3.63
2018-09-01T15:55:43.219Z,4.73
2018-09-01T15:58:12.208Z,3.67
2018-09-01T16:00:41.276Z,4.07
2018-09-01T16:03:10.303Z,2.23
2018-09-01T16:05:39.278Z,5.17
2018-09-01T16:08:08.556Z,3.23
2018-09-01T16:10:37.547Z,3.87
2018-09-01T16:13:06.563Z,3.30
2018-09-01T16:15:35.576Z,5.27
2018-09-01T16:18:04.660Z,4.17
2018-09-01T16:20:33.661Z,3.67
2018-09-01T16:23:02.668Z,3.37
2018-09-01T16:25:31.651Z,7.43
2018-09-01T16:28:00.718Z,3.73
2018-09-01T16:30:29.803Z,4.17
2018-09-01T16:32:58.834Z,4.67
2018-09-01T16:35:27.860Z,2.67
2018-09-01T16:37:56.871Z,4.13
2018-09-01T16:40:25.880Z,3.17
2018-09-01T16:42:54.875Z,4.63
2018-09-01T16:45:23.913Z,4.13
2018-09-01T16:47:52.983Z,2.77
2018-09-01T16:50:21.972Z,5.53
2018-09-01T16:52:50.972Z,2.90
2018-09-01T16:55:20.013Z,3.63
2018-09-01T16:57:49.042Z,5.07
2018-09-01T17:00:18.063Z,4.33
2018-09-01T17:02:47.119Z,2.97
2018-09-01T17:05:16.156Z,3.67
2018-09-01T17:07:45.161Z,3.77
2018-09-01T17:10:14.200Z,4.40
2018-09-01T17:12:43.212Z,3.13
2018-09-01T17:15:12.234Z,3.53
2018-09-01T17:17:41.244Z,3.93
2018-09-01T17:20:10.271Z,2.27
2018-09-01T17:22:39.277Z,3.67
2018-09-01T17:25:08.350Z,4.00
2018-09-01T17:27:37.399Z,2.80
2018-09-01T17:30:06.775Z,3.23
2018-09-01T17:32:35.776Z,3.80
2018-09-01T17:35:04.848Z,6.47
2018-09-01T17:37:33.904Z,4.77
2018-09-01T17:40:02.899Z,4.13
2018-09-01T17:42:31.940Z,2.47
2018-09-01T17:45:00.916Z,3.53
2018-09-01T17:47:29.928Z,2.70
2018-09-01T17:49:58.946Z,3.17
2018-09-01T17:52:27.980Z,4.20
2018-09-01T17:54:57.075Z,4.03
2018-09-01T17:57:26.231Z,2.80
2018-09-01T17:59:55.271Z,5.07
2018-09-01T18:02:24.381Z,4.17
2018-09-01T18:04:53.455Z,3.87
2018-09-01T18:07:22.447Z,3.67
2018-09-01T18:09:51.737Z,5.80
2018-09-01T18:12:20.745Z,2.57
2018-09-01T18:14:49.851Z,6.43
2018-09-01T18:17:18.925Z,5.53
2018-09-01T18:19:47.920Z,5.70
2018-09-01T18:22:16.980Z,5.30
2018-09-01T18:24:46.127Z,3.03
2018-09-01T18:27:15.385Z,2.73
2018-09-01T18:29:44.416Z,3.13
2018-09-01T18:32:13.456Z,4.00
2018-09-01T18:34:42.804Z,6.33
2018-09-01T18:37:11.946Z,3.07
2018-09-01T18:39:41.243Z,3.83
2018-09-01T18:42:10.332Z,4.77
2018-09-01T18:44:39.380Z,2.63
2018-09-01T18:47:08.603Z,3.27
2018-09-01T18:49:37.732Z,4.73
2018-09-01T18:52:06.755Z,5.33
2018-09-01T18:54:35.802Z,3.07
2018-09-01T18:57:04.892Z,5.23
2018-09-01T18:59:33.953Z,4.93
2018-09-01T19:02:03.036Z,9.13
2018-09-01T19:04:32.676Z,6.53
2018-09-01T19:07:01.798Z,4.83
2018-09-01T19:09:30.804Z,5.17
2018-09-01T19:11:59.803Z,3.27
2018-09-01T19:14:28.828Z,7.30
2018-09-01T19:16:57.852Z,4.27
2018-09-01T19:19:26.892Z,3.57
2018-09-01T19:21:55.960Z,6.10
2018-09-01T19:24:24.984Z,3.87
2018-09-01T19:26:54.010Z,3.40
2018-09-01T19:29:23.032Z,3.57
2018-09-01T19:31:52.107Z,4.33
2018-09-01T19:34:21.108Z,3.73
2018-09-01T19:36:50.094Z,4.37
2018-09-01T19:39:19.146Z,5.03
2018-09-01T19:41:48.163Z,4.87
2018-09-01T19:44:17.271Z,4.57
2018-09-01T19:46:46.304Z,5.53
2018-09-01T19:49:15.345Z,3.33
2018-09-01T19:51:44.691Z,3.53
2018-09-01T19:54:13.710Z,4.30
2018-09-01T19:56:42.777Z,4.70
2018-09-01T19:59:11.839Z,5.00
2018-09-01T20:01:40.834Z,6.13
2018-09-01T20:04:09.889Z,4.77
2018-09-01T20:06:38.868Z,4.50
2018-09-01T20:09:07.921Z,4.73
2018-09-01T20:11:36.972Z,7.77
2018-09-01T20:14:06.083Z,9.57
2018-09-01T20:16:35.050Z,7.13
2018-09-01T20:19:04.039Z,5.17
2018-09-01T20:21:33.110Z,5.10
2018-09-01T20:24:02.107Z,5.27
2018-09-01T20:26:31.116Z,4.43
2018-09-01T20:29:00.099Z,4.50
2018-09-01T20:31:29.084Z,4.47
2018-09-01T20:33:58.097Z,3.60
2018-09-01T20:36:27.088Z,5.17
2018-09-01T20:38:56.095Z,6.27
2018-09-01T20:41:25.126Z,4.73
2018-09-01T20:43:54.063Z,5.57
2018-09-01T20:46:23.057Z,4.47
2018-09-01T20:48:53.027Z,10.43
2018-09-01T20:51:22.081Z,8.97
2018-09-01T20:53:51.077Z,4.83
2018-09-01T20:56:20.117Z,7.20
2018-09-01T20:58:49.159Z,5.20
2018-09-01T21:01:18.237Z,8.73
2018-09-01T21:03:47.223Z,6.17
2018-09-01T21:06:16.217Z,8.70
2018-09-01T21:08:45.213Z,7.17
2018-09-01T21:11:14.204Z,7.70
2018-09-01T21:13:43.238Z,8.70
2018-09-01T21:16:12.233Z,7.70
2018-09-01T21:18:41.351Z,7.60
2018-09-01T21:21:10.364Z,7.53
2018-09-01T21:23:39.455Z,6.40
2018-09-01T21:26:08.433Z,6.43
2018-09-01T21:28:37.457Z,7.03
2018-09-01T21:31:06.485Z,7.97
2018-09-01T21:33:35.568Z,5.30
2018-09-01T21:36:04.566Z,5.47
2018-09-01T21:38:33.544Z,8.80
2018-09-01T21:41:02.536Z,6.07
2018-09-01T21:43:31.546Z,8.30
2018-09-01T21:46:00.559Z,6.17
2018-09-01T21:48:29.569Z,6.10
2018-09-01T21:50:58.536Z,4.13
2018-09-01T21:53:27.498Z,5.37
2018-09-01T21:55:56.639Z,5.90
2018-09-01T21:58:25.625Z,7.93
2018-09-01T22:00:58.968Z,6.77
2018-09-01T22:03:27.908Z,9.13
2018-09-01T22:05:56.940Z,7.83
2018-09-01T22:08:25.956Z,8.23
2018-09-01T22:10:54.976Z,6.23
2018-09-01T22:13:23.959Z,6.47
2018-09-01T22:15:52.967Z,8.43
2018-09-01T22:18:21.949Z,7.73
2018-09-01T22:20:51.197Z,6.53
2018-09-01T22:23:20.190Z,8.87
2018-09-01T22:25:49.159Z,5.00
2018-09-01T22:28:18.147Z,7.33
2018-09-01T22:30:47.103Z,7.47
2018-09-01T22:33:16.365Z,7.43
2018-09-01T22:35:45.562Z,7.33
2018-09-01T22:38:14.532Z,9.83
2018-09-01T22:40:43.545Z,9.80
2018-09-01T22:43:12.504Z,4.07
2018-09-01T22:45:41.521Z,6.03
2018-09-01T22:48:10.474Z,5.57
2018-09-01T22:50:39.472Z,6.23
2018-09-01T22:53:08.496Z,6.43
2018-09-01T22:55:37.499Z,6.03
2018-09-01T22:58:06.641Z,6.37
2018-09-01T23:00:35.598Z,6.60
2018-09-01T23:03:04.631Z,6.50
2018-09-01T23:05:33.722Z,5.27
2018-09-01T23:08:02.725Z,9.93
2018-09-01T23:10:31.798Z,8.10
2018-09-01T23:13:00.812Z,6.97
2018-09-01T23:15:29.879Z,4.97
2018-09-01T23:18:05.245Z,4.27
2018-09-01T23:20:34.241Z,9.00
2018-09-01T23:23:03.468Z,5.63
2018-09-01T23:25:32.487Z,5.77
2018-09-01T23:28:01.485Z,4.90
2018-09-01T23:30:30.517Z,8.53
2018-09-01T23:32:59.496Z,5.23
2018-09-01T23:35:28.589Z,6.23
2018-09-01T23:37:57.597Z,5.70
2018-09-01T23:40:26.577Z,6.27
2018-09-01T23:42:55.555Z,7.10
2018-09-01T23:45:24.544Z,10.10
2018-09-01T23:47:53.625Z,6.13
2018-09-01T23:50:22.617Z,6.97
2018-09-01T23:52:51.604Z,7.67
2018-09-01T23:55:20.662Z,5.53
2018-09-01T23:57:49.641Z,11.47
